West Seneca, New York
Current Conditions -  °F | °C
As of 9:54 AM on Saturday 22 Nov 2014 (Local Time) from KBUF Reporting Station
Broken Clouds Broken Clouds  
Wind Chill: 22°   Ceiling: 4600
Heat Index: 33°   Visibility: 10mi
Dew Point: 12°   Wind: 17mph
Humidity: 42%   Direction: 210°SSW
Pressure: 30.14"   Gusts: NA
Location:  42.83°N, 78.75°W
Report Text: KBUF 221454Z 21015KT 10SM BKN046 BKN065 BKN140 BKN200 01/M11 A3014 RMK AO2 SLP216 T00061111 58024
Loading
Personal Weather Stations






























Interactive Weather Map New forecast layout! Learn more

10-Day Weather Forecast

Advertisements
Track Severe Weather on mobile